createdAt,value
2023-05-21T00:01:08.539Z,15.24
2023-05-21T00:06:09.973Z,15.20
2023-05-21T00:11:11.508Z,15.17
2023-05-21T00:16:13.115Z,15.18
2023-05-21T00:21:16.640Z,15.18
2023-05-21T00:26:17.945Z,15.16
2023-05-21T00:31:19.797Z,15.18
2023-05-21T00:36:23.372Z,15.23
2023-05-21T00:41:25.413Z,15.28
2023-05-21T00:46:28.034Z,15.28
2023-05-21T00:51:29.819Z,15.28
2023-05-21T00:56:31.946Z,15.31
2023-05-21T01:01:36.263Z,15.31
2023-05-21T01:06:38.189Z,15.32
2023-05-21T01:12:39.452Z,15.31
2023-05-21T01:19:00.518Z,15.29
2023-05-21T01:25:21.562Z,15.28
2023-05-21T01:31:42.833Z,15.19
2023-05-21T01:38:06.625Z,15.08
2023-05-21T01:44:37.733Z,15.00
2023-05-21T01:50:58.782Z,14.98
2023-05-21T01:56:22.517Z,14.86
2023-05-21T02:01:23.795Z,14.77
2023-05-21T02:06:25.242Z,14.67
2023-05-21T02:11:26.594Z,14.61
2023-05-21T02:16:28.096Z,14.61
2023-05-21T02:21:29.486Z,14.65
2023-05-21T02:26:30.807Z,14.66
2023-05-21T02:31:32.108Z,14.63
2023-05-21T02:36:35.607Z,14.61
2023-05-21T02:41:37.586Z,14.58
2023-05-21T02:46:39.456Z,14.56
2023-05-21T02:51:41.421Z,14.55
2023-05-21T02:56:42.850Z,14.59
2023-05-21T03:01:44.600Z,14.65
2023-05-21T03:06:46.086Z,14.68
2023-05-21T03:11:48.080Z,14.71
2023-05-21T03:16:50.912Z,14.75
2023-05-21T03:21:53.395Z,14.75
2023-05-21T03:26:56.516Z,14.78
2023-05-21T03:32:00.857Z,14.78
2023-05-21T03:37:02.687Z,14.81
2023-05-21T03:42:04.627Z,14.84
2023-05-21T03:47:19.952Z,14.90
2023-05-21T03:52:22.361Z,14.94
2023-05-21T03:57:23.718Z,14.99
2023-05-21T04:02:26.562Z,15.13
2023-05-21T04:07:29.382Z,15.27
2023-05-21T04:12:31.104Z,15.51
2023-05-21T04:17:34.121Z,15.72
2023-05-21T04:22:36.721Z,15.83
2023-05-21T04:27:38.059Z,15.85
2023-05-21T04:32:39.498Z,15.93
2023-05-21T04:37:42.266Z,16.10
2023-05-21T04:42:46.198Z,16.26
2023-05-21T04:47:48.175Z,16.41
2023-05-21T04:52:49.732Z,16.59
2023-05-21T04:57:52.243Z,16.75
2023-05-21T05:02:53.865Z,16.81
2023-05-21T05:07:57.628Z,16.97
2023-05-21T05:12:59.447Z,17.24
2023-05-21T05:18:02.615Z,17.30
2023-05-21T05:23:04.383Z,17.46
2023-05-21T05:28:06.127Z,17.70
2023-05-21T05:33:07.854Z,17.94
2023-05-21T05:38:09.990Z,18.35
2023-05-21T05:43:11.668Z,18.91
2023-05-21T05:48:13.303Z,19.45
2023-05-21T05:54:14.520Z,19.75
2023-05-21T06:00:35.712Z,20.01
2023-05-21T06:06:57.726Z,20.35
2023-05-21T06:13:18.780Z,20.75
2023-05-21T06:19:39.961Z,21.24
2023-05-21T06:25:01.203Z,21.98
2023-05-21T06:30:02.754Z,22.79
2023-05-21T06:35:05.657Z,23.53
2023-05-21T06:40:07.463Z,24.22
2023-05-21T06:45:09.233Z,24.67
2023-05-21T06:50:13.594Z,25.49
2023-05-21T06:55:15.296Z,26.09
2023-05-21T07:00:37.779Z,27.08
2023-05-21T07:05:39.515Z,27.83
2023-05-21T07:10:41.842Z,28.49
2023-05-21T07:15:43.994Z,29.16
2023-05-21T07:20:45.922Z,29.40
2023-05-21T07:32:54.778Z,29.13
2023-05-21T07:39:40.016Z,29.66
2023-05-21T07:46:31.818Z,30.03
2023-05-21T07:53:23.663Z,30.01
2023-05-21T07:59:48.164Z,30.00
2023-05-21T08:06:10.300Z,29.95
2023-05-21T08:12:52.038Z,29.76
2023-05-21T08:19:19.696Z,30.17
2023-05-21T08:25:19.859Z,31.23
2023-05-21T08:31:26.973Z,31.91
2023-05-21T08:37:57.042Z,31.82
2023-05-21T08:45:02.824Z,31.33
2023-05-21T08:52:04.823Z,30.33
2023-05-21T08:58:31.607Z,29.43
2023-05-21T09:05:06.018Z,28.87
2023-05-21T09:11:30.022Z,28.90
2023-05-21T09:18:06.070Z,28.81
2023-05-21T09:24:36.563Z,28.33
2023-05-21T09:31:23.546Z,28.78
2023-05-21T09:37:51.249Z,28.57
2023-05-21T09:44:36.479Z,29.22
2023-05-21T09:51:51.099Z,29.50
2023-05-21T09:58:24.459Z,30.16
2023-05-21T10:04:41.141Z,30.32
2023-05-21T10:10:50.459Z,30.32
2023-05-21T10:16:52.659Z,30.78
2023-05-21T10:22:23.728Z,31.15
2023-05-21T10:28:10.982Z,30.77
2023-05-21T10:34:17.354Z,31.21
2023-05-21T10:40:44.275Z,31.73
2023-05-21T10:47:56.685Z,31.71
2023-05-21T10:54:19.636Z,32.03
2023-05-21T11:01:01.207Z,32.57
2023-05-21T11:07:28.990Z,32.48
2023-05-21T11:13:52.017Z,32.71
2023-05-21T11:20:40.357Z,33.53
2023-05-21T11:27:11.561Z,32.85
2023-05-21T11:33:31.565Z,32.82
2023-05-21T11:40:09.140Z,32.75
2023-05-21T11:46:38.134Z,34.04
2023-05-21T11:53:13.163Z,34.18
2023-05-21T11:59:43.612Z,34.35
2023-05-21T12:06:29.081Z,34.71
2023-05-21T12:13:31.246Z,33.96
2023-05-21T12:20:33.210Z,33.69
2023-05-21T12:26:54.668Z,34.54
2023-05-21T12:33:18.386Z,35.43
2023-05-21T12:39:45.104Z,36.22
2023-05-21T12:46:14.377Z,36.77
2023-05-21T12:52:38.704Z,37.04
2023-05-21T12:58:55.871Z,36.97
2023-05-21T13:04:57.629Z,36.85
2023-05-21T13:10:49.244Z,36.89
2023-05-21T13:16:09.398Z,36.83
2023-05-21T13:21:53.659Z,36.99
2023-05-21T13:27:19.035Z,36.86
2023-05-21T13:33:32.187Z,36.74
2023-05-21T13:39:03.206Z,36.74
2023-05-21T13:44:11.399Z,36.51
2023-05-21T13:49:21.516Z,36.33
2023-05-21T13:54:27.249Z,36.35
2023-05-21T13:59:41.125Z,36.44
2023-05-21T14:05:14.149Z,36.40
2023-05-21T14:10:47.680Z,35.37
2023-05-21T14:16:51.257Z,34.33
2023-05-21T14:22:53.991Z,33.89
2023-05-21T14:29:16.125Z,33.37
2023-05-21T14:36:00.520Z,32.98
2023-05-21T14:42:24.500Z,32.85
2023-05-21T14:49:18.592Z,32.76
2023-05-21T14:55:43.006Z,32.47
2023-05-21T15:02:24.665Z,32.11
2023-05-21T15:08:46.146Z,31.67
2023-05-21T15:15:16.181Z,31.34
2023-05-21T15:21:37.557Z,30.53
2023-05-21T15:27:59.732Z,29.56
2023-05-21T15:34:24.070Z,28.66
2023-05-21T15:40:04.628Z,27.51
2023-05-21T15:46:28.652Z,26.96
2023-05-21T15:52:52.386Z,26.55
2023-05-21T15:58:57.452Z,26.30
2023-05-21T16:05:25.763Z,26.01
2023-05-21T16:11:44.798Z,25.67
2023-05-21T16:17:40.171Z,25.37
2023-05-21T16:24:04.991Z,25.24
2023-05-21T16:30:29.463Z,24.95
2023-05-21T16:36:02.495Z,24.60
2023-05-21T16:42:06.925Z,24.48
2023-05-21T16:48:40.411Z,24.30
2023-05-21T16:54:04.864Z,24.10
2023-05-21T17:00:09.172Z,23.92
2023-05-21T17:05:57.678Z,23.66
2023-05-21T17:11:55.565Z,23.42
2023-05-21T17:18:25.494Z,23.06
2023-05-21T17:25:17.123Z,22.64
2023-05-21T17:31:41.192Z,22.38
2023-05-21T17:38:03.268Z,22.18
2023-05-21T17:44:29.453Z,21.99
2023-05-21T17:50:50.796Z,21.77
2023-05-21T17:57:15.455Z,21.56
2023-05-21T18:02:46.532Z,21.38
2023-05-21T18:08:17.863Z,21.25
2023-05-21T18:13:33.770Z,21.11
2023-05-21T18:19:23.932Z,20.95
2023-05-21T18:26:22.342Z,20.74
2023-05-21T18:33:23.232Z,20.50
2023-05-21T18:40:12.632Z,20.26
2023-05-21T18:46:38.494Z,20.06
2023-05-21T18:53:10.488Z,19.83
2023-05-21T18:59:34.651Z,19.64
2023-05-21T19:05:49.733Z,19.48
2023-05-21T19:11:07.419Z,19.39
2023-05-21T19:16:23.798Z,19.27
2023-05-21T19:21:39.576Z,19.17
2023-05-21T19:27:52.117Z,19.08
2023-05-21T19:34:16.260Z,18.96
2023-05-21T19:40:10.009Z,18.83
2023-05-21T19:45:26.348Z,18.73
2023-05-21T19:50:42.322Z,18.61
2023-05-21T19:56:44.640Z,18.50
2023-05-21T20:03:27.737Z,18.42
2023-05-21T20:09:44.099Z,18.28
2023-05-21T20:15:00.708Z,18.20
2023-05-21T20:20:09.759Z,18.10
2023-05-21T20:25:22.821Z,17.94
2023-05-21T20:31:10.837Z,17.83
2023-05-21T20:36:43.003Z,17.72
2023-05-21T20:42:20.689Z,17.57
2023-05-21T20:47:42.001Z,17.43
2023-05-21T20:53:28.544Z,17.29
2023-05-21T21:00:10.289Z,17.19
2023-05-21T21:06:08.932Z,17.05
2023-05-21T21:11:49.680Z,16.94
2023-05-21T21:18:21.875Z,16.85
2023-05-21T21:24:43.227Z,16.74
2023-05-21T21:31:04.762Z,16.62
2023-05-21T21:36:32.780Z,16.53
2023-05-21T21:42:41.033Z,16.44
2023-05-21T21:49:29.363Z,16.30
2023-05-21T21:55:09.236Z,16.20
2023-05-21T22:02:11.423Z,16.09
2023-05-21T22:08:44.837Z,15.97
2023-05-21T22:15:01.664Z,15.86
2023-05-21T22:21:28.669Z,15.75
2023-05-21T22:27:51.304Z,15.62
2023-05-21T22:34:28.637Z,15.48
2023-05-21T22:40:55.019Z,15.34
2023-05-21T22:47:51.516Z,15.23
2023-05-21T22:53:31.720Z,15.15
2023-05-21T22:59:51.981Z,15.11
2023-05-21T23:06:01.654Z,15.04
2023-05-21T23:12:27.554Z,14.94
2023-05-21T23:18:19.663Z,14.85
2023-05-21T23:24:46.225Z,14.75
2023-05-21T23:30:02.039Z,14.64
2023-05-21T23:35:13.879Z,14.52
2023-05-21T23:40:22.238Z,14.41
2023-05-21T23:46:36.669Z,14.31
2023-05-21T23:53:02.523Z,14.22
2023-05-21T23:59:30.410Z,14.16
